createdAt,value
2022-10-18T00:00:00.838Z,14.45
2022-10-18T00:02:27.447Z,11.40
2022-10-18T00:04:53.951Z,10.93
2022-10-18T00:07:20.462Z,10.73
2022-10-18T00:09:46.973Z,12.18
2022-10-18T00:12:13.524Z,13.10
2022-10-18T00:14:40.073Z,10.27
2022-10-18T00:17:06.593Z,12.82
2022-10-18T00:19:33.111Z,10.70
2022-10-18T00:21:59.617Z,9.07
2022-10-18T00:24:26.156Z,11.70
2022-10-18T00:26:52.676Z,13.30
2022-10-18T00:29:19.501Z,13.30
2022-10-18T00:31:46.011Z,13.43
2022-10-18T00:34:15.309Z,11.70
2022-10-18T00:36:43.256Z,12.93
2022-10-18T00:39:15.311Z,11.68
2022-10-18T00:41:41.886Z,15.15
2022-10-18T00:44:11.137Z,11.02
2022-10-18T00:46:39.949Z,11.95
2022-10-18T00:49:41.639Z,12.63
2022-10-18T00:52:10.951Z,12.00
2022-10-18T00:54:41.410Z,14.23
2022-10-18T00:57:08.533Z,8.50
2022-10-18T00:59:36.017Z,13.13
2022-10-18T01:02:03.322Z,12.15
2022-10-18T01:04:29.909Z,10.40
2022-10-18T01:07:08.301Z,12.98
2022-10-18T01:09:40.864Z,10.55
2022-10-18T01:12:34.037Z,16.58
2022-10-18T01:15:05.817Z,12.10
2022-10-18T01:17:58.803Z,12.48
2022-10-18T01:20:54.564Z,14.63
2022-10-18T01:24:07.212Z,13.80
2022-10-18T01:26:48.156Z,17.42
2022-10-18T01:29:44.725Z,12.88
2022-10-18T01:32:22.923Z,18.70
2022-10-18T01:34:54.567Z,14.95
2022-10-18T01:37:22.410Z,17.33
2022-10-18T01:39:54.456Z,14.63
2022-10-18T01:42:21.587Z,18.48
2022-10-18T01:44:52.236Z,14.30
2022-10-18T01:47:20.176Z,12.88
2022-10-18T01:49:46.737Z,23.38
2022-10-18T01:52:14.600Z,17.15
2022-10-18T01:54:44.683Z,16.27
2022-10-18T01:57:24.761Z,20.75
2022-10-18T02:00:14.107Z,19.17
2022-10-18T02:02:58.773Z,13.27
2022-10-18T02:05:40.298Z,14.20
2022-10-18T02:08:30.801Z,16.17
2022-10-18T02:10:59.991Z,19.83
2022-10-18T02:13:31.410Z,13.50
2022-10-18T02:16:04.924Z,17.83
2022-10-18T02:18:38.861Z,16.90
2022-10-18T02:21:10.586Z,20.25
2022-10-18T02:23:38.956Z,19.00
2022-10-18T02:26:06.649Z,22.73
2022-10-18T02:28:33.193Z,17.42
2022-10-18T02:31:31.005Z,14.48
2022-10-18T02:34:02.524Z,15.25
2022-10-18T02:36:35.915Z,17.90
2022-10-18T02:39:07.568Z,18.50
2022-10-18T02:41:34.327Z,16.20
2022-10-18T02:44:02.961Z,22.98
2022-10-18T02:46:29.547Z,16.20
2022-10-18T02:48:56.094Z,16.23
2022-10-18T02:51:23.710Z,17.05
2022-10-18T02:53:50.168Z,16.45
2022-10-18T02:56:16.772Z,15.98
2022-10-18T02:58:43.332Z,21.08
2022-10-18T03:01:10.882Z,19.35
2022-10-18T03:03:38.448Z,17.27
2022-10-18T03:06:06.622Z,18.60
2022-10-18T03:08:33.126Z,18.90
2022-10-18T03:10:59.597Z,19.13
2022-10-18T03:13:26.175Z,17.48
2022-10-18T03:15:52.713Z,21.48
2022-10-18T03:18:19.203Z,17.02
2022-10-18T03:20:45.714Z,21.70
2022-10-18T03:23:12.278Z,19.05
2022-10-18T03:25:40.573Z,18.77
2022-10-18T03:28:09.411Z,16.02
2022-10-18T03:30:35.886Z,16.95
2022-10-18T03:33:02.407Z,19.73
2022-10-18T03:35:28.900Z,16.13
2022-10-18T03:37:55.391Z,21.40
2022-10-18T03:40:21.990Z,17.42
2022-10-18T03:42:48.553Z,17.00
2022-10-18T03:45:15.224Z,20.40
2022-10-18T03:47:41.725Z,20.90
2022-10-18T03:50:08.643Z,21.88
2022-10-18T03:52:35.168Z,16.25
2022-10-18T03:55:01.773Z,20.45
2022-10-18T03:57:28.263Z,17.63
2022-10-18T03:59:54.857Z,18.63
2022-10-18T04:02:21.590Z,16.70
2022-10-18T04:04:48.275Z,20.83
2022-10-18T04:07:15.577Z,18.30
2022-10-18T04:09:42.168Z,21.85
2022-10-18T04:12:08.629Z,18.90
2022-10-18T04:14:35.371Z,18.00
2022-10-18T04:17:02.036Z,18.77
2022-10-18T04:19:28.650Z,22.27
2022-10-18T04:21:55.350Z,17.65
2022-10-18T04:24:21.893Z,18.58
2022-10-18T04:26:48.428Z,21.20
2022-10-18T04:29:14.990Z,18.58
2022-10-18T04:31:41.524Z,16.23
2022-10-18T04:34:08.965Z,17.50
2022-10-18T04:36:35.533Z,18.70
2022-10-18T04:39:02.066Z,17.00
2022-10-18T04:41:28.708Z,14.85
2022-10-18T04:43:55.203Z,14.75
2022-10-18T04:46:22.597Z,16.35
2022-10-18T04:48:49.100Z,15.88
2022-10-18T04:51:15.631Z,18.17
2022-10-18T04:53:42.080Z,19.00
2022-10-18T04:56:08.800Z,20.00
2022-10-18T04:58:35.317Z,19.42
2022-10-18T05:01:05.512Z,17.63
2022-10-18T05:03:32.321Z,21.63
2022-10-18T05:06:02.699Z,21.23
2022-10-18T05:08:31.063Z,18.85
2022-10-18T05:10:57.717Z,20.50
2022-10-18T05:13:24.771Z,25.85
2022-10-18T05:15:51.968Z,24.92
2022-10-18T05:18:18.535Z,21.88
2022-10-18T05:20:45.069Z,22.05
2022-10-18T05:23:11.642Z,24.25
2022-10-18T05:25:39.638Z,25.30
2022-10-18T05:28:11.063Z,22.10
2022-10-18T05:30:47.871Z,24.42
2022-10-18T05:33:14.417Z,28.40
2022-10-18T05:35:40.928Z,28.20
2022-10-18T05:38:10.021Z,26.20
2022-10-18T05:40:39.532Z,28.27
2022-10-18T05:43:06.048Z,32.45
2022-10-18T05:45:32.540Z,31.38
2022-10-18T05:47:59.100Z,28.75
2022-10-18T05:50:25.658Z,30.85
2022-10-18T05:53:02.692Z,30.35
2022-10-18T05:58:05.187Z,31.75
2022-10-18T06:00:31.735Z,33.50
2022-10-18T06:03:00.282Z,31.85
2022-10-18T06:05:27.985Z,32.50
2022-10-18T06:07:58.380Z,31.50
2022-10-18T06:10:25.327Z,33.33
2022-10-18T06:12:51.875Z,27.25
2022-10-18T06:15:18.431Z,30.05
2022-10-18T06:17:44.991Z,36.45
2022-10-18T06:20:11.538Z,30.77
2022-10-18T06:22:38.025Z,31.60
2022-10-18T06:25:04.768Z,34.38
2022-10-18T06:27:33.966Z,30.90
2022-10-18T06:30:00.870Z,34.33
2022-10-18T06:32:27.342Z,29.10
2022-10-18T06:34:53.866Z,33.28
2022-10-18T06:37:20.327Z,32.72
2022-10-18T06:39:46.872Z,29.77
2022-10-18T06:42:13.358Z,27.73
2022-10-18T06:44:39.871Z,29.90
2022-10-18T06:47:07.769Z,31.55
2022-10-18T06:49:34.312Z,28.55
2022-10-18T06:52:00.888Z,28.30
2022-10-18T06:54:27.523Z,28.83
2022-10-18T06:56:57.086Z,31.75
2022-10-18T06:59:25.271Z,26.80
2022-10-18T07:01:54.204Z,30.90
2022-10-18T07:04:20.809Z,27.05
2022-10-18T07:06:47.374Z,31.63
2022-10-18T07:09:13.875Z,23.77
2022-10-18T07:11:40.430Z,23.20
2022-10-18T07:14:07.315Z,25.92
2022-10-18T07:16:34.491Z,25.10
2022-10-18T07:19:01.160Z,23.80
2022-10-18T07:21:27.775Z,26.70
2022-10-18T07:23:54.556Z,22.35
2022-10-18T07:26:24.878Z,23.95
2022-10-18T07:29:04.760Z,23.00
2022-10-18T07:31:31.386Z,23.75
2022-10-18T07:33:58.196Z,29.73
2022-10-18T07:36:25.584Z,25.15
2022-10-18T07:38:52.948Z,26.00
2022-10-18T07:41:19.954Z,23.35
2022-10-18T07:43:48.666Z,26.02
2022-10-18T07:46:15.585Z,25.67
2022-10-18T07:48:42.228Z,29.23
2022-10-18T07:51:09.099Z,27.98
2022-10-18T07:53:36.245Z,27.40
2022-10-18T07:56:08.741Z,27.20
2022-10-18T07:58:36.077Z,30.65
2022-10-18T08:01:04.623Z,22.23
2022-10-18T08:03:31.368Z,30.92
2022-10-18T08:05:57.973Z,22.88
2022-10-18T08:08:25.157Z,29.08
2022-10-18T08:10:52.202Z,31.67
2022-10-18T08:13:19.073Z,26.58
2022-10-18T08:15:46.083Z,27.45
2022-10-18T08:18:13.169Z,30.50
2022-10-18T08:20:44.787Z,30.40
2022-10-18T08:23:11.983Z,30.30
2022-10-18T08:25:38.686Z,30.65
2022-10-18T08:28:05.370Z,33.67
2022-10-18T08:30:31.884Z,29.65
2022-10-18T08:32:58.437Z,33.38
2022-10-18T08:35:25.040Z,34.97
2022-10-18T08:37:51.591Z,30.80
2022-10-18T08:40:18.447Z,28.08
2022-10-18T08:43:00.719Z,31.73
2022-10-18T08:45:41.990Z,28.38
2022-10-18T08:48:22.014Z,30.75
2022-10-18T08:50:50.861Z,34.08
2022-10-18T08:53:27.924Z,31.98
2022-10-18T08:56:15.147Z,34.00
2022-10-18T08:58:44.940Z,26.33
2022-10-18T09:01:29.750Z,31.15
2022-10-18T09:04:11.430Z,31.80
2022-10-18T09:07:13.647Z,28.23
2022-10-18T09:10:01.865Z,28.27
2022-10-18T09:12:37.408Z,27.13
2022-10-18T09:15:15.983Z,29.55
2022-10-18T09:17:57.264Z,32.80
2022-10-18T09:20:27.464Z,25.08
2022-10-18T09:22:57.113Z,24.38
2022-10-18T09:25:36.429Z,24.98
2022-10-18T09:28:31.114Z,21.75
2022-10-18T09:31:03.818Z,19.55
2022-10-18T09:33:33.332Z,20.48
2022-10-18T09:36:06.212Z,19.10
2022-10-18T09:38:41.789Z,21.48
2022-10-18T09:41:15.229Z,20.58
2022-10-18T09:43:58.863Z,18.25
2022-10-18T09:46:32.251Z,14.05
2022-10-18T09:49:02.337Z,17.40
2022-10-18T09:51:36.356Z,20.20
2022-10-18T09:54:13.510Z,18.88
2022-10-18T09:56:48.941Z,18.08
2022-10-18T09:59:27.884Z,17.45
2022-10-18T10:01:54.561Z,22.60
2022-10-18T10:04:21.065Z,18.38
2022-10-18T10:06:53.101Z,17.73
2022-10-18T10:09:36.122Z,20.33
2022-10-18T10:12:02.828Z,15.77
2022-10-18T10:14:30.739Z,15.40
2022-10-18T10:17:22.530Z,14.43
2022-10-18T10:20:10.981Z,16.20
2022-10-18T10:22:40.275Z,14.80
2022-10-18T10:25:18.945Z,16.90
2022-10-18T10:27:46.293Z,11.90
2022-10-18T10:30:34.187Z,12.55
2022-10-18T10:33:01.344Z,11.95
2022-10-18T10:35:52.536Z,11.40
2022-10-18T10:38:25.755Z,10.65
2022-10-18T10:40:52.865Z,13.52
2022-10-18T10:43:39.131Z,13.20
2022-10-18T10:46:13.943Z,12.65
2022-10-18T10:48:50.830Z,13.50
2022-10-18T10:51:38.966Z,13.00
2022-10-18T10:54:11.802Z,10.50
2022-10-18T10:56:59.161Z,14.07
2022-10-18T10:59:29.930Z,11.43
2022-10-18T11:02:17.654Z,14.55
2022-10-18T11:04:46.628Z,13.05
2022-10-18T11:07:27.402Z,13.43
2022-10-18T11:10:20.277Z,14.85
2022-10-18T11:13:02.315Z,13.25
2022-10-18T11:15:47.294Z,11.88
2022-10-18T11:18:19.954Z,12.27
2022-10-18T11:21:25.270Z,11.68
2022-10-18T11:23:51.942Z,12.65
2022-10-18T11:26:24.551Z,12.40
2022-10-18T11:29:18.895Z,11.57
2022-10-18T11:32:15.294Z,14.13
2022-10-18T11:35:29.542Z,14.20
2022-10-18T11:38:02.060Z,20.73
2022-10-18T11:40:44.632Z,13.35
2022-10-18T11:43:30.340Z,13.90
2022-10-18T11:46:21.465Z,13.27
2022-10-18T11:49:07.544Z,13.85
2022-10-18T11:52:07.905Z,15.02
2022-10-18T11:54:57.635Z,10.40
2022-10-18T11:57:39.410Z,18.80
2022-10-18T12:00:12.106Z,11.35
2022-10-18T12:02:57.261Z,14.15
2022-10-18T12:05:25.144Z,14.13
2022-10-18T12:07:51.753Z,9.30
2022-10-18T12:10:31.497Z,12.05
2022-10-18T12:13:12.878Z,13.80
2022-10-18T12:15:40.702Z,8.27
2022-10-18T12:18:13.321Z,8.57
2022-10-18T12:20:53.643Z,11.43
2022-10-18T12:23:26.163Z,9.57
2022-10-18T12:26:02.076Z,12.18
2022-10-18T12:28:34.740Z,10.73
2022-10-18T12:31:10.394Z,9.45
2022-10-18T12:33:44.339Z,9.32
2022-10-18T12:36:40.941Z,9.13
2022-10-18T12:39:14.732Z,8.95
2022-10-18T12:41:41.468Z,6.25
2022-10-18T12:44:17.733Z,6.53
2022-10-18T12:46:51.595Z,12.18
2022-10-18T12:49:28.553Z,9.10
2022-10-18T12:51:59.567Z,8.82
2022-10-18T12:54:33.356Z,7.50
2022-10-18T12:57:01.357Z,7.10
2022-10-18T12:59:27.785Z,9.77
2022-10-18T13:01:54.303Z,8.82
2022-10-18T13:04:33.665Z,11.18
2022-10-18T13:07:32.853Z,6.07
2022-10-18T13:10:12.764Z,8.55
2022-10-18T13:12:54.500Z,12.57
2022-10-18T13:15:46.459Z,9.38
2022-10-18T13:18:44.843Z,10.00
2022-10-18T13:21:20.375Z,11.20
2022-10-18T13:24:27.588Z,8.45
2022-10-18T13:27:35.421Z,7.35
2022-10-18T13:30:26.381Z,10.88
2022-10-18T13:32:52.777Z,8.32
2022-10-18T13:35:57.052Z,8.75
2022-10-18T13:38:29.255Z,10.75
2022-10-18T13:41:20.668Z,8.23
2022-10-18T13:43:56.073Z,9.00
2022-10-18T13:46:45.585Z,8.05
2022-10-18T13:49:33.247Z,5.75
2022-10-18T13:51:59.702Z,11.65
2022-10-18T13:54:46.910Z,9.07
2022-10-18T13:57:37.904Z,7.70
2022-10-18T14:00:48.970Z,8.32
2022-10-18T14:03:57.015Z,10.57
2022-10-18T14:06:28.211Z,10.52
2022-10-18T14:09:13.786Z,7.32
2022-10-18T14:11:53.865Z,9.13
2022-10-18T14:14:29.950Z,6.85
2022-10-18T14:19:50.745Z,8.63
2022-10-18T14:22:35.174Z,11.02
2022-10-18T14:25:01.878Z,8.32
2022-10-18T14:27:32.550Z,10.68
2022-10-18T14:30:15.981Z,7.30
2022-10-18T14:32:48.432Z,10.98
2022-10-18T14:35:32.165Z,11.07
2022-10-18T14:37:59.907Z,6.93
2022-10-18T14:40:34.919Z,7.47
2022-10-18T14:43:11.438Z,7.65
2022-10-18T14:45:38.357Z,10.25
2022-10-18T14:48:14.667Z,9.43
2022-10-18T14:50:42.706Z,8.20
2022-10-18T14:53:16.267Z,9.27
2022-10-18T14:55:43.136Z,8.45
2022-10-18T14:58:16.037Z,12.75
2022-10-18T15:00:45.122Z,7.90
2022-10-18T15:03:16.952Z,6.05
2022-10-18T15:05:59.468Z,7.85
2022-10-18T15:08:43.234Z,7.72
2022-10-18T15:11:14.339Z,10.77
2022-10-18T15:13:56.579Z,10.70
2022-10-18T15:16:26.958Z,9.57
2022-10-18T15:19:14.644Z,9.23
2022-10-18T15:22:08.095Z,6.93
2022-10-18T15:24:41.381Z,9.10
2022-10-18T15:27:29.068Z,7.65
2022-10-18T15:29:55.954Z,9.75
2022-10-18T15:32:29.288Z,12.02
2022-10-18T15:35:08.399Z,9.20
2022-10-18T15:37:41.947Z,6.10
2022-10-18T15:40:23.699Z,5.90
2022-10-18T15:42:55.223Z,10.48
2022-10-18T15:45:24.557Z,7.55
2022-10-18T15:48:06.326Z,11.45
2022-10-18T15:50:44.480Z,11.70
2022-10-18T15:53:20.156Z,13.57
2022-10-18T15:56:03.040Z,8.88
2022-10-18T15:58:29.588Z,8.93
2022-10-18T16:00:59.182Z,10.23
2022-10-18T16:03:26.801Z,9.80
2022-10-18T16:05:58.672Z,7.93
2022-10-18T16:08:31.840Z,8.07
2022-10-18T16:10:59.299Z,7.07
2022-10-18T16:13:27.012Z,9.38
2022-10-18T16:15:55.721Z,9.45
2022-10-18T16:18:23.725Z,5.57
2022-10-18T16:20:50.232Z,11.60
2022-10-18T16:23:20.520Z,6.95
2022-10-18T16:25:47.303Z,7.65
2022-10-18T16:28:20.784Z,15.77
2022-10-18T16:30:53.984Z,7.82
2022-10-18T16:33:21.716Z,5.53
2022-10-18T16:35:48.858Z,5.53
2022-10-18T16:38:24.145Z,7.07
2022-10-18T16:40:50.636Z,10.00
2022-10-18T16:43:17.246Z,5.72
2022-10-18T16:45:43.799Z,4.32
2022-10-18T16:48:14.910Z,7.18
2022-10-18T16:50:41.825Z,9.55
2022-10-18T16:53:08.499Z,9.93
2022-10-18T16:55:35.511Z,10.60
2022-10-18T16:58:02.151Z,5.85
2022-10-18T17:00:28.994Z,8.68
2022-10-18T17:02:55.783Z,5.50
2022-10-18T17:05:23.347Z,6.03
2022-10-18T17:07:50.136Z,14.10
2022-10-18T17:10:20.021Z,6.30
2022-10-18T17:12:46.866Z,8.10
2022-10-18T17:15:13.415Z,16.33
2022-10-18T17:17:42.278Z,9.15
2022-10-18T17:20:12.032Z,6.43
2022-10-18T17:22:38.570Z,9.18
2022-10-18T17:25:05.406Z,8.75
2022-10-18T17:27:32.318Z,7.53
2022-10-18T17:29:59.169Z,6.22
2022-10-18T17:32:25.738Z,7.10
2022-10-18T17:34:52.267Z,12.27
2022-10-18T17:37:18.856Z,9.52
2022-10-18T17:39:45.554Z,7.05
2022-10-18T17:42:12.136Z,9.45
2022-10-18T17:44:38.710Z,5.80
2022-10-18T17:47:05.384Z,7.38
2022-10-18T17:49:31.929Z,7.47
2022-10-18T17:52:01.104Z,7.32
2022-10-18T17:54:29.854Z,5.53
2022-10-18T17:56:56.495Z,6.95
2022-10-18T17:59:23.328Z,8.70
2022-10-18T18:01:49.955Z,13.65
2022-10-18T18:04:19.507Z,8.65
2022-10-18T18:06:48.926Z,10.60
2022-10-18T18:09:16.536Z,6.53
2022-10-18T18:11:44.561Z,6.50
2022-10-18T18:14:11.999Z,12.30
2022-10-18T18:16:41.493Z,7.20
2022-10-18T18:19:09.958Z,5.97
2022-10-18T18:21:37.435Z,9.05
2022-10-18T18:24:04.224Z,5.63
2022-10-18T18:26:32.675Z,8.55
2022-10-18T18:28:59.566Z,5.47
2022-10-18T18:31:27.606Z,5.38
2022-10-18T18:33:57.630Z,7.80
2022-10-18T18:36:28.803Z,8.00
2022-10-18T18:38:57.816Z,5.38
2022-10-18T18:41:26.038Z,7.07
2022-10-18T18:43:55.599Z,8.85
2022-10-18T18:46:23.509Z,4.93
2022-10-18T18:48:50.047Z,8.30
2022-10-18T18:51:19.148Z,6.00
2022-10-18T18:53:47.028Z,10.30
2022-10-18T18:56:23.770Z,10.00
2022-10-18T18:58:51.936Z,9.05
2022-10-18T19:01:22.279Z,5.97
2022-10-18T19:03:50.478Z,6.63
2022-10-18T19:06:20.004Z,7.53
2022-10-18T19:08:47.321Z,12.38
2022-10-18T19:11:16.641Z,10.90
2022-10-18T19:13:43.588Z,4.30
2022-10-18T19:16:17.647Z,6.63
2022-10-18T19:18:49.233Z,5.38
2022-10-18T19:21:15.700Z,12.60
2022-10-18T19:23:42.198Z,7.93
2022-10-18T19:26:11.116Z,6.75
2022-10-18T19:28:37.855Z,8.75
2022-10-18T19:31:05.354Z,7.43
2022-10-18T19:33:41.495Z,6.18
2022-10-18T19:36:18.491Z,7.85
2022-10-18T19:38:45.045Z,9.38
2022-10-18T19:41:11.943Z,9.13
2022-10-18T19:43:38.464Z,7.05
2022-10-18T19:46:05.716Z,6.65
2022-10-18T19:48:32.431Z,10.75
2022-10-18T19:51:09.028Z,7.70
2022-10-18T19:53:36.769Z,4.28
2022-10-18T19:56:05.138Z,7.18
2022-10-18T19:58:32.164Z,6.22
2022-10-18T20:01:00.182Z,6.70
2022-10-18T20:03:30.257Z,8.43
2022-10-18T20:05:59.007Z,6.82
2022-10-18T20:08:27.007Z,5.82
2022-10-18T20:10:53.790Z,7.15
2022-10-18T20:13:21.002Z,8.95
2022-10-18T20:15:51.328Z,4.97
2022-10-18T20:18:19.649Z,6.22
2022-10-18T20:20:48.266Z,12.35
2022-10-18T20:23:16.671Z,14.88
2022-10-18T20:25:43.945Z,9.80
2022-10-18T20:28:10.419Z,10.13
2022-10-18T20:30:36.995Z,10.10
2022-10-18T20:33:03.623Z,13.00
2022-10-18T20:35:30.177Z,10.35
2022-10-18T20:37:56.727Z,7.13
2022-10-18T20:40:23.257Z,10.68
2022-10-18T20:42:51.561Z,9.18
2022-10-18T20:45:18.195Z,11.50
2022-10-18T20:47:44.832Z,4.53
2022-10-18T20:50:11.351Z,12.63
2022-10-18T20:52:37.879Z,8.75
2022-10-18T20:55:04.880Z,7.55
2022-10-18T20:57:34.171Z,13.70
2022-10-18T21:00:03.708Z,27.83
2022-10-18T21:02:30.298Z,27.35
2022-10-18T21:04:56.861Z,18.58
2022-10-18T21:07:23.384Z,13.38
2022-10-18T21:09:49.972Z,7.43
2022-10-18T21:12:16.497Z,12.45
2022-10-18T21:14:42.990Z,11.85
2022-10-18T21:17:09.604Z,10.02
2022-10-18T21:19:36.086Z,7.20
2022-10-18T21:22:02.633Z,9.77
2022-10-18T21:24:30.160Z,9.40
2022-10-18T21:26:56.735Z,5.82
2022-10-18T21:29:26.954Z,11.27
2022-10-18T21:31:55.596Z,8.13
2022-10-18T21:34:22.253Z,8.95
2022-10-18T21:36:48.884Z,7.63
2022-10-18T21:39:18.694Z,5.82
2022-10-18T21:41:45.747Z,7.05
2022-10-18T21:44:12.646Z,8.25
2022-10-18T21:46:40.244Z,8.43
2022-10-18T21:49:07.548Z,12.20
2022-10-18T21:51:34.094Z,7.93
2022-10-18T21:54:00.816Z,10.52
2022-10-18T21:56:33.868Z,9.88
2022-10-18T21:59:01.863Z,8.82
2022-10-18T22:01:33.990Z,7.30
2022-10-18T22:04:02.648Z,8.65
2022-10-18T22:06:32.561Z,4.93
2022-10-18T22:09:02.197Z,7.35
2022-10-18T22:11:32.313Z,5.85
2022-10-18T22:13:59.361Z,5.55
2022-10-18T22:16:26.565Z,2.75
2022-10-18T22:18:57.831Z,6.88
2022-10-18T22:21:24.407Z,4.18
2022-10-18T22:23:53.173Z,4.35
2022-10-18T22:26:22.732Z,8.05
2022-10-18T22:28:58.134Z,4.30
2022-10-18T22:31:27.396Z,6.43
2022-10-18T22:33:56.116Z,6.50
2022-10-18T22:36:23.305Z,5.15
2022-10-18T22:38:50.032Z,6.13
2022-10-18T22:41:17.193Z,6.00
2022-10-18T22:43:43.942Z,3.13
2022-10-18T22:46:13.324Z,3.40
2022-10-18T22:48:40.919Z,5.25
2022-10-18T22:51:08.418Z,3.47
2022-10-18T22:53:35.950Z,5.45
2022-10-18T22:56:03.599Z,6.07
2022-10-18T22:58:30.499Z,4.47
2022-10-18T23:01:06.104Z,4.10
2022-10-18T23:03:33.040Z,3.60
2022-10-18T23:05:59.581Z,6.82
2022-10-18T23:08:26.710Z,3.15
2022-10-18T23:10:55.646Z,4.40
2022-10-18T23:13:23.660Z,5.75
2022-10-18T23:15:50.798Z,5.90
2022-10-18T23:18:18.015Z,6.22
2022-10-18T23:20:45.291Z,11.63
2022-10-18T23:23:12.665Z,5.53
2022-10-18T23:25:39.340Z,11.18
2022-10-18T23:28:06.526Z,6.00
2022-10-18T23:30:33.822Z,4.10
2022-10-18T23:33:00.415Z,6.85
2022-10-18T23:35:29.301Z,5.45
2022-10-18T23:37:55.802Z,5.10
2022-10-18T23:40:22.327Z,6.20
2022-10-18T23:42:48.808Z,4.03
2022-10-18T23:45:15.357Z,8.48
2022-10-18T23:47:41.812Z,4.38
2022-10-18T23:50:08.773Z,2.80
2022-10-18T23:52:35.338Z,7.07
2022-10-18T23:55:02.482Z,4.38
2022-10-18T23:57:29.041Z,9.82
2022-10-18T23:59:55.514Z,6.72
